Time,TemperatureF,DewpointF,PressureIn,WindDirection,WindDirectionDegrees,WindSpeedMPH,WindSpeedGustMPH,Humidity,HourlyPrecipIn,Conditions,Clouds,dailyrainin,SoftwareType,DateUTC
2013-01-09 00:00:00,50.9,48.7,30.03,NNE,20,2.7,3.6,92,0.28,,OVC,1.31,VWS V14.00,2013-01-09 05:00:00,
2013-01-09 00:01:00,50.9,48.7,30.03,NNE,20,5.8,5.8,92,0.28,,OVC,1.31,VWS V14.00,2013-01-09 05:01:00,
2013-01-09 00:02:00,50.9,48.7,30.03,North,0,3.6,5.8,92,0.35,,OVC,1.39,VWS V14.00,2013-01-09 05:02:00,
2013-01-09 00:07:00,51.1,48.8,30.03,NNW,345,2.7,4.0,92,0.43,,OVC,1.47,VWS V14.00,2013-01-09 05:07:00,
2013-01-09 00:12:00,51.1,48.8,30.03,WNW,302,3.6,3.6,92,0.43,,OVC,1.47,VWS V14.00,2013-01-09 05:12:00,
2013-01-09 00:17:00,51.3,49.0,30.03,NNW,329,4.9,4.9,92,0.47,,OVC,1.51,VWS V14.00,2013-01-09 05:17:00,
2013-01-09 00:22:00,51.3,49.0,30.03,NNW,341,4.0,4.9,92,0.47,,OVC,1.55,VWS V14.00,2013-01-09 05:22:00,
2013-01-09 00:27:00,51.3,49.0,30.03,NNE,24,6.3,6.3,92,0.51,,OVC,1.59,VWS V14.00,2013-01-09 05:27:00,
2013-01-09 00:32:00,51.4,49.2,30.03,North,1,6.7,6.7,92,0.51,,OVC,1.59,VWS V14.00,2013-01-09 05:32:00,
2013-01-09 00:37:00,51.3,49.0,30.03,NW,305,5.4,5.4,92,0.47,,OVC,1.59,VWS V14.00,2013-01-09 05:37:00,
2013-01-09 00:42:00,51.4,49.2,30.03,NNW,340,5.4,5.4,92,0.51,,OVC,1.63,VWS V14.00,2013-01-09 05:42:00,
2013-01-09 00:47:00,51.4,49.5,30.03,NNE,13,3.1,6.3,93,0.55,,OVC,1.67,VWS V14.00,2013-01-09 05:47:00,
2013-01-09 00:52:00,51.3,49.3,30.03,NNE,12,8.7,8.7,93,0.47,,OVC,1.71,VWS V14.00,2013-01-09 05:52:00,
2013-01-09 00:57:00,51.3,49.3,30.03,NNE,31,4.0,6.3,93,0.43,,OVC,1.71,VWS V14.00,2013-01-09 05:57:00,
2013-01-09 01:02:00,51.3,49.3,30.03,NNW,341,5.4,5.4,93,0.31,,OVC,0.00,VWS V14.00,2013-01-09 06:02:00,
2013-01-09 01:07:00,51.3,49.3,30.03,WNW,300,4.0,5.4,93,0.28,,OVC,0.00,VWS V14.00,2013-01-09 06:07:00,
2013-01-09 01:12:00,51.4,49.5,30.03,NW,321,4.0,4.0,93,0.28,,OVC,0.04,VWS V14.00,2013-01-09 06:12:00,
2013-01-09 01:17:00,51.3,49.3,30.03,NNE,16,5.4,5.4,93,0.28,,OVC,0.08,VWS V14.00,2013-01-09 06:17:00,
2013-01-09 01:22:00,51.4,49.5,30.03,NNE,25,4.5,4.5,93,0.24,,OVC,0.08,VWS V14.00,2013-01-09 06:22:00,
2013-01-09 01:27:00,51.4,49.5,30.03,North,0,8.7,10.5,93,0.20,,OVC,0.08,VWS V14.00,2013-01-09 06:27:00,
2013-01-09 01:32:00,51.6,49.7,30.03,North,9,8.1,8.7,93,0.24,,OVC,0.12,VWS V14.00,2013-01-09 06:32:00,
2013-01-09 01:37:00,51.4,49.5,30.00,North,353,7.6,8.1,93,0.24,,OVC,0.12,VWS V14.00,2013-01-09 06:37:00,
2013-01-09 01:42:00,51.4,49.5,30.00,NNW,348,2.7,2.7,93,0.20,,OVC,0.12,VWS V14.00,2013-01-09 06:42:00,
2013-01-09 01:47:00,51.4,49.5,30.00,NNW,340,5.4,6.3,93,0.16,,OVC,0.12,VWS V14.00,2013-01-09 06:47:00,
2013-01-09 01:52:00,51.4,49.5,30.03,North,357,5.8,5.8,93,0.12,,OVC,0.12,VWS V14.00,2013-01-09 06:52:00,
2013-01-09 01:57:00,51.3,49.3,30.03,NNW,338,4.9,4.9,93,0.12,,OVC,0.12,VWS V14.00,2013-01-09 06:57:00,
2013-01-09 02:02:00,51.4,49.5,30.03,NNW,336,3.6,3.6,93,0.12,,OVC,0.12,VWS V14.00,2013-01-09 07:02:00,
2013-01-09 02:07:00,51.4,49.5,30.00,WNW,302,3.6,3.6,93,0.12,,OVC,0.12,VWS V14.00,2013-01-09 07:07:00,
2013-01-09 02:12:00,51.4,49.5,30.00,WNW,296,2.7,3.1,93,0.08,,OVC,0.12,VWS V14.00,2013-01-09 07:12:00,
2013-01-09 02:17:00,51.4,49.5,30.00,North,2,0.0,5.4,93,0.08,,OVC,0.12,VWS V14.00,2013-01-09 07:17:00,
2013-01-09 02:22:00,51.4,49.5,30.06,North,0,2.7,2.7,93,0.04,,OVC,0.12,VWS V14.00,2013-01-09 07:22:00,
2013-01-09 02:27:00,51.6,49.7,30.06,NW,321,3.6,4.9,93,0.08,,OVC,0.16,VWS V14.00,2013-01-09 07:27:00,
2013-01-09 02:32:00,51.6,49.7,30.06,NW,310,4.0,4.0,93,0.04,,OVC,0.16,VWS V14.00,2013-01-09 07:32:00,
2013-01-09 02:37:00,51.6,49.7,30.06,NNW,342,2.7,2.7,93,0.08,,OVC,0.20,VWS V14.00,2013-01-09 07:37:00,
2013-01-09 02:42:00,51.8,49.8,30.06,NW,305,2.7,3.6,93,0.08,,OVC,0.20,VWS V14.00,2013-01-09 07:42:00,
2013-01-09 02:47:00,51.8,49.8,30.06,WNW,300,0.0,2.2,93,0.08,,OVC,0.20,VWS V14.00,2013-01-09 07:47:00,
2013-01-09 02:52:00,51.8,49.8,30.06,NNW,336,3.1,3.1,93,0.08,,OVC,0.20,VWS V14.00,2013-01-09 07:52:00,
2013-01-09 02:57:00,52.0,50.0,30.06,North,0,3.6,3.6,93,0.12,,OVC,0.24,VWS V14.00,2013-01-09 07:57:00,
2013-01-09 03:02:00,52.2,50.2,30.06,NNE,31,5.4,6.7,93,0.16,,OVC,0.28,VWS V14.00,2013-01-09 08:02:00,
2013-01-09 03:07:00,52.3,50.4,30.06,North,6,7.2,7.2,93,0.16,,OVC,0.28,VWS V14.00,2013-01-09 08:07:00,
2013-01-09 03:12:00,52.5,50.6,30.06,North,7,4.0,5.4,93,0.16,,OVC,0.28,VWS V14.00,2013-01-09 08:12:00,
2013-01-09 03:17:00,52.5,50.6,30.06,NNW,344,3.1,4.0,93,0.20,,OVC,0.31,VWS V14.00,2013-01-09 08:17:00,
2013-01-09 03:22:00,52.3,50.4,30.03,NNW,343,5.8,5.8,93,0.24,,OVC,0.35,VWS V14.00,2013-01-09 08:22:00,
2013-01-09 03:27:00,52.3,50.4,30.03,NNE,24,5.4,5.4,93,0.24,,OVC,0.39,VWS V14.00,2013-01-09 08:27:00,
2013-01-09 03:32:00,52.3,50.4,30.03,North,353,6.3,6.3,93,0.24,,OVC,0.39,VWS V14.00,2013-01-09 08:32:00,
2013-01-09 03:37:00,52.2,50.2,30.06,NNE,14,5.8,5.8,93,0.28,,OVC,0.47,VWS V14.00,2013-01-09 08:37:00,
2013-01-09 03:42:00,52.3,50.4,30.06,North,349,5.8,5.8,93,0.28,,OVC,0.47,VWS V14.00,2013-01-09 08:42:00,
2013-01-09 03:47:00,52.3,50.4,30.06,North,3,5.8,5.8,93,0.31,,OVC,0.51,VWS V14.00,2013-01-09 08:47:00,
2013-01-09 03:52:00,52.2,50.2,30.03,NNW,346,5.8,5.8,93,0.31,,OVC,0.51,VWS V14.00,2013-01-09 08:52:00,
2013-01-09 03:57:00,52.3,50.4,30.03,NNE,27,6.3,8.7,93,0.31,,OVC,0.55,VWS V14.00,2013-01-09 08:57:00,
2013-01-09 04:02:00,52.7,50.7,30.03,NE,34,8.3,10.1,93,0.28,,OVC,0.55,VWS V14.00,2013-01-09 09:02:00,
2013-01-09 04:07:00,52.7,51.0,30.03,NNE,23,7.6,8.1,94,0.31,,OVC,0.59,VWS V14.00,2013-01-09 09:07:00,
2013-01-09 04:12:00,52.9,51.2,30.03,North,0,5.8,11.0,94,0.31,,OVC,0.59,VWS V14.00,2013-01-09 09:12:00,
2013-01-09 04:17:00,53.1,51.4,30.03,NNE,28,7.2,11.0,94,0.28,,OVC,0.59,VWS V14.00,2013-01-09 09:17:00,
2013-01-09 04:22:00,53.4,51.7,30.03,NNE,17,10.5,10.5,94,0.28,,OVC,0.63,VWS V14.00,2013-01-09 09:22:00,
2013-01-09 04:27:00,53.8,52.1,30.03,NNE,23,10.5,10.5,94,0.24,,OVC,0.63,VWS V14.00,2013-01-09 09:27:00,
2013-01-09 04:32:00,54.0,52.3,30.03,NNE,18,11.0,11.0,94,0.24,,OVC,0.63,VWS V14.00,2013-01-09 09:32:00,
2013-01-09 04:37:00,54.3,52.6,30.03,NNE,26,13.2,15.0,94,0.16,,OVC,0.63,VWS V14.00,2013-01-09 09:37:00,
2013-01-09 04:42:00,54.5,52.8,30.03,NNE,24,10.1,13.2,94,0.16,,OVC,0.63,VWS V14.00,2013-01-09 09:42:00,
2013-01-09 04:47:00,54.5,52.8,30.03,NNE,20,10.1,15.0,94,0.12,,OVC,0.63,VWS V14.00,2013-01-09 09:47:00,
2013-01-09 04:52:00,54.7,53.0,30.03,NNW,337,8.1,13.2,94,0.12,,OVC,0.63,VWS V14.00,2013-01-09 09:52:00,
2013-01-09 04:57:00,54.7,53.0,30.03,NNE,12,8.1,12.8,94,0.08,,OVC,0.63,VWS V14.00,2013-01-09 09:57:00,
2013-01-09 05:02:00,54.9,53.2,30.03,North,11,10.1,11.4,94,0.08,,OVC,0.63,VWS V14.00,2013-01-09 10:02:00,
2013-01-09 05:07:00,54.9,53.2,30.00,NE,42,15.0,15.4,94,0.08,,OVC,0.63,VWS V14.00,2013-01-09 10:07:00,
2013-01-09 05:12:00,55.0,53.3,30.00,NNE,32,11.0,11.0,94,0.04,,OVC,0.63,VWS V14.00,2013-01-09 10:12:00,
2013-01-09 05:17:00,55.0,53.3,30.00,NE,47,15.0,15.9,94,0.08,,OVC,0.67,VWS V14.00,2013-01-09 10:17:00,
2013-01-09 05:22:00,55.2,53.5,30.03,North,357,10.5,10.5,94,0.04,,OVC,0.67,VWS V14.00,2013-01-09 10:22:00,
2013-01-09 05:27:00,55.2,53.5,30.03,North,6,8.3,12.3,94,0.04,,OVC,0.67,VWS V14.00,2013-01-09 10:27:00,
2013-01-09 05:32:00,55.4,53.7,30.03,NE,43,12.8,16.3,94,0.04,,OVC,0.67,VWS V14.00,2013-01-09 10:32:00,
2013-01-09 05:37:00,55.4,53.7,30.03,NE,37,12.8,12.8,94,0.04,,OVC,0.67,VWS V14.00,2013-01-09 10:37:00,
2013-01-09 05:42:00,55.4,53.7,30.03,NE,37,10.5,10.5,94,0.04,,OVC,0.67,VWS V14.00,2013-01-09 10:42:00,
2013-01-09 05:47:00,55.6,53.9,30.03,NE,36,12.3,12.3,94,0.04,,OVC,0.67,VWS V14.00,2013-01-09 10:47:00,
2013-01-09 05:52:00,55.6,53.9,30.03,NE,38,10.1,15.4,94,0.04,,OVC,0.67,VWS V14.00,2013-01-09 10:52:00,
2013-01-09 05:57:00,55.8,54.1,30.03,NNE,31,11.0,11.0,94,0.04,,OVC,0.67,VWS V14.00,2013-01-09 10:57:00,
2013-01-09 06:02:00,55.8,54.1,30.03,NE,51,12.8,13.2,94,0.04,,OVC,0.67,VWS V14.00,2013-01-09 11:02:00,
2013-01-09 06:07:00,55.8,54.1,30.00,NNE,19,8.1,15.0,94,0.04,,OVC,0.67,VWS V14.00,2013-01-09 11:07:00,
2013-01-09 06:12:00,55.8,54.1,30.00,NE,39,13.2,13.2,94,0.04,,OVC,0.67,VWS V14.00,2013-01-09 11:12:00,
2013-01-09 06:17:00,55.9,54.2,30.00,NE,43,10.5,11.4,94,0.00,,OVC,0.67,VWS V14.00,2013-01-09 11:17:00,
2013-01-09 06:22:00,55.9,54.2,30.00,NE,40,13.6,13.6,94,0.00,,OVC,0.67,VWS V14.00,2013-01-09 11:22:00,
2013-01-09 06:27:00,55.9,54.2,30.00,NE,54,11.0,11.0,94,0.04,,OVC,0.71,VWS V14.00,2013-01-09 11:27:00,
2013-01-09 06:32:00,55.9,54.2,30.00,ENE,66,7.6,8.7,94,0.04,,OVC,0.71,VWS V14.00,2013-01-09 11:32:00,
2013-01-09 06:37:00,55.9,54.2,30.03,NE,44,11.0,11.0,94,0.04,,OVC,0.71,VWS V14.00,2013-01-09 11:37:00,
2013-01-09 06:42:00,55.9,54.2,30.03,NE,35,10.5,11.9,94,0.04,,OVC,0.71,VWS V14.00,2013-01-09 11:42:00,
2013-01-09 06:47:00,56.1,54.4,30.03,NE,41,13.2,13.6,94,0.04,,OVC,0.71,VWS V14.00,2013-01-09 11:47:00,
2013-01-09 06:52:00,56.1,54.4,30.00,NE,52,8.1,13.2,94,0.04,,OVC,0.71,VWS V14.00,2013-01-09 11:52:00,
2013-01-09 06:57:00,56.1,54.4,30.00,NE,42,10.1,10.1,94,0.04,,OVC,0.71,VWS V14.00,2013-01-09 11:57:00,
2013-01-09 07:01:00,56.1,54.4,30.00,NE,47,14.5,16.8,94,0.04,,OVC,0.71,VWS V14.00,2013-01-09 12:01:00,
2013-01-09 07:06:00,56.1,54.4,30.00,ENE,59,11.0,13.2,94,0.04,,OVC,0.71,VWS V14.00,2013-01-09 12:06:00,
2013-01-09 07:11:00,56.1,54.4,30.00,NE,45,18.8,21.5,94,0.04,,OVC,0.71,VWS V14.00,2013-01-09 12:11:00,
2013-01-09 07:16:00,56.1,54.4,30.00,NNE,33,15.0,18.3,94,0.04,,OVC,0.71,VWS V14.00,2013-01-09 12:16:00,
2013-01-09 07:21:00,56.1,54.4,30.00,NNE,31,13.2,18.8,94,0.04,,OVC,0.71,VWS V14.00,2013-01-09 12:21:00,
2013-01-09 07:26:00,56.1,54.4,30.00,NNE,21,15.4,15.9,94,0.00,,OVC,0.71,VWS V14.00,2013-01-09 12:26:00,
2013-01-09 07:31:00,56.1,54.4,30.00,NE,45,12.3,14.5,94,0.04,,OVC,0.75,VWS V14.00,2013-01-09 12:31:00,
2013-01-09 07:36:00,56.1,54.4,30.00,NNE,31,15.0,18.8,94,0.04,,OVC,0.75,VWS V14.00,2013-01-09 12:36:00,
2013-01-09 07:41:00,56.1,54.4,30.00,NNE,24,15.4,15.4,94,0.04,,OVC,0.75,VWS V14.00,2013-01-09 12:41:00,
2013-01-09 07:46:00,56.1,54.4,30.00,NNW,346,10.1,11.4,94,0.04,,OVC,0.75,VWS V14.00,2013-01-09 12:46:00,
2013-01-09 07:51:00,56.1,54.4,30.03,NE,36,12.3,14.1,94,0.04,,OVC,0.75,VWS V14.00,2013-01-09 12:51:00,
2013-01-09 07:56:00,56.3,54.6,30.03,NNE,25,5.8,11.0,94,0.04,,OVC,0.75,VWS V14.00,2013-01-09 12:56:00,
2013-01-09 08:01:00,56.3,54.6,30.03,NNE,24,8.7,8.7,94,0.04,,OVC,0.75,VWS V14.00,2013-01-09 13:01:00,
2013-01-09 08:06:00,56.3,54.6,30.06,NNE,28,5.8,8.3,94,0.08,,OVC,0.79,VWS V14.00,2013-01-09 13:06:00,
2013-01-09 08:11:00,56.3,54.6,30.06,NE,39,12.3,12.8,94,0.08,,OVC,0.79,VWS V14.00,2013-01-09 13:11:00,
2013-01-09 08:16:00,56.3,54.6,30.06,NNE,18,8.1,8.7,94,0.08,,OVC,0.79,VWS V14.00,2013-01-09 13:16:00,
2013-01-09 08:21:00,56.3,54.6,30.03,North,350,4.9,15.0,94,0.12,,OVC,0.83,VWS V14.00,2013-01-09 13:21:00,
2013-01-09 08:26:00,56.3,54.6,30.03,NNW,333,5.4,6.3,94,0.12,,OVC,0.83,VWS V14.00,2013-01-09 13:26:00,
2013-01-09 08:31:00,56.3,54.6,30.03,NNE,25,8.7,11.0,94,0.08,,OVC,0.83,VWS V14.00,2013-01-09 13:31:00,
2013-01-09 08:36:00,56.3,54.6,30.03,NE,42,6.3,8.1,94,0.08,,OVC,0.83,VWS V14.00,2013-01-09 13:36:00,
2013-01-09 08:41:00,56.3,54.6,30.03,North,8,5.8,8.1,94,0.08,,OVC,0.83,VWS V14.00,2013-01-09 13:41:00,
2013-01-09 08:46:00,56.3,54.6,30.03,NNE,23,5.8,8.1,94,0.08,,OVC,0.83,VWS V14.00,2013-01-09 13:46:00,
2013-01-09 08:51:00,56.3,54.6,30.03,NNE,30,8.3,8.3,94,0.08,,OVC,0.83,VWS V14.00,2013-01-09 13:51:00,
2013-01-09 08:56:00,56.3,54.6,30.03,North,357,5.8,7.6,94,0.08,,OVC,0.83,VWS V14.00,2013-01-09 13:56:00,
2013-01-09 09:01:00,56.5,54.8,30.03,NE,39,8.3,9.2,94,0.08,,OVC,0.83,VWS V14.00,2013-01-09 14:01:00,
2013-01-09 09:06:00,56.5,54.8,30.03,NNW,343,4.9,5.8,94,0.04,,OVC,0.83,VWS V14.00,2013-01-09 14:06:00,
2013-01-09 09:11:00,56.5,54.8,30.03,NNE,32,7.6,8.1,94,0.04,,OVC,0.83,VWS V14.00,2013-01-09 14:11:00,
2013-01-09 09:16:00,56.5,54.8,30.03,NE,38,5.4,6.3,94,0.04,,OVC,0.83,VWS V14.00,2013-01-09 14:16:00,
2013-01-09 09:21:00,56.5,54.8,30.03,NNE,19,5.4,6.3,94,0.00,,OVC,0.83,VWS V14.00,2013-01-09 14:21:00,
2013-01-09 09:26:00,56.5,54.8,30.03,NNE,19,8.1,8.1,94,0.00,,OVC,0.83,VWS V14.00,2013-01-09 14:26:00,
2013-01-09 09:31:00,56.7,55.0,30.03,NE,34,5.8,5.8,94,0.00,,OVC,0.83,VWS V14.00,2013-01-09 14:31:00,
2013-01-09 09:36:00,56.7,55.0,30.06,NNE,32,5.8,8.3,94,0.00,,OVC,0.83,VWS V14.00,2013-01-09 14:36:00,
2013-01-09 09:41:00,56.7,55.0,30.06,NNE,23,6.3,6.3,94,0.00,,OVC,0.83,VWS V14.00,2013-01-09 14:41:00,
2013-01-09 09:46:00,56.7,55.0,30.06,NE,36,5.4,6.3,94,0.00,,OVC,0.83,VWS V14.00,2013-01-09 14:46:00,
2013-01-09 09:51:00,56.7,55.0,30.06,NNW,346,5.4,5.4,94,0.00,,OVC,0.83,VWS V14.00,2013-01-09 14:51:00,
2013-01-09 09:56:00,56.7,55.0,30.06,NNE,23,3.6,5.4,94,0.00,,OVC,0.83,VWS V14.00,2013-01-09 14:56:00,
2013-01-09 10:01:00,56.7,55.0,30.06,NNW,337,4.0,5.4,94,0.00,,OVC,0.83,VWS V14.00,2013-01-09 15:01:00,
2013-01-09 10:06:00,56.7,55.0,30.06,NNE,19,7.6,8.3,94,0.04,,OVC,0.87,VWS V14.00,2013-01-09 15:06:00,
2013-01-09 10:11:00,56.7,55.0,30.06,NNE,21,5.8,6.3,94,0.04,,OVC,0.87,VWS V14.00,2013-01-09 15:11:00,
2013-01-09 10:16:00,56.7,55.0,30.06,NNE,21,6.3,7.6,94,0.04,,OVC,0.87,VWS V14.00,2013-01-09 15:16:00,
2013-01-09 10:21:00,56.7,55.0,30.06,North,2,6.3,6.3,94,0.04,,OVC,0.87,VWS V14.00,2013-01-09 15:21:00,
2013-01-09 10:26:00,56.8,55.1,30.06,NNE,20,8.7,10.1,94,0.04,,OVC,0.87,VWS V14.00,2013-01-09 15:26:00,
2013-01-09 10:31:00,56.8,55.1,30.06,NNE,26,5.8,5.8,94,0.04,,OVC,0.87,VWS V14.00,2013-01-09 15:31:00,
2013-01-09 10:36:00,56.8,55.1,30.06,NNE,28,5.4,5.4,94,0.04,,OVC,0.87,VWS V14.00,2013-01-09 15:36:00,
2013-01-09 10:41:00,56.8,55.1,30.06,North,0,5.8,7.6,94,0.04,,OVC,0.87,VWS V14.00,2013-01-09 15:41:00,
2013-01-09 10:46:00,56.7,55.0,30.06,NNW,342,5.8,5.8,94,0.04,,OVC,0.87,VWS V14.00,2013-01-09 15:46:00,
2013-01-09 10:51:00,56.7,55.0,30.06,North,2,2.7,5.8,94,0.04,,OVC,0.87,VWS V14.00,2013-01-09 15:51:00,
2013-01-09 10:56:00,56.5,54.8,30.06,NNE,12,5.4,7.6,94,0.04,,OVC,0.87,VWS V14.00,2013-01-09 15:56:00,
2013-01-09 11:01:00,56.3,54.6,30.06,North,5,5.8,5.8,94,0.04,,OVC,0.87,VWS V14.00,2013-01-09 16:01:00,
2013-01-09 11:06:00,56.1,54.4,30.06,North,1,8.3,8.3,94,0.00,,OVC,0.87,VWS V14.00,2013-01-09 16:06:00,
2013-01-09 11:11:00,55.9,54.2,30.06,NNE,28,8.3,8.7,94,0.00,,OVC,0.87,VWS V14.00,2013-01-09 16:11:00,
2013-01-09 11:16:00,55.9,54.2,30.06,NE,37,6.3,8.1,94,0.00,,OVC,0.87,VWS V14.00,2013-01-09 16:16:00,
2013-01-09 11:21:00,55.4,53.7,30.06,North,353,11.0,11.0,94,0.00,,OVC,0.87,VWS V14.00,2013-01-09 16:21:00,
2013-01-09 11:26:00,55.2,53.5,30.06,North,2,8.7,9.6,94,0.00,,OVC,0.87,VWS V14.00,2013-01-09 16:26:00,
2013-01-09 11:31:00,55.4,53.7,30.06,NNE,26,7.6,8.1,94,0.00,,OVC,0.87,VWS V14.00,2013-01-09 16:31:00,
2013-01-09 11:36:00,55.6,53.9,30.06,NNE,23,4.9,7.2,94,0.00,,OVC,0.87,VWS V14.00,2013-01-09 16:36:00,
2013-01-09 11:41:00,55.2,53.5,30.06,NE,43,6.3,8.7,94,0.00,,OVC,0.87,VWS V14.00,2013-01-09 16:41:00,
2013-01-09 11:47:00,55.0,53.3,30.06,NE,35,5.4,8.7,94,0.00,,OVC,0.87,VWS V14.00,2013-01-09 16:47:00,
2013-01-09 11:51:00,54.9,53.2,30.06,North,0,2.2,4.0,94,0.00,,OVC,0.87,VWS V14.00,2013-01-09 16:51:00,
2013-01-09 11:56:00,54.9,53.2,30.06,NNW,330,4.5,4.5,94,0.00,,OVC,0.87,VWS V14.00,2013-01-09 16:56:00,
2013-01-09 12:01:00,55.0,53.3,30.06,NNW,339,0.0,4.0,94,0.00,,OVC,0.87,VWS V14.00,2013-01-09 17:01:00,
2013-01-09 12:06:00,55.0,53.3,30.06,NNW,341,3.6,4.9,94,0.00,,OVC,0.87,VWS V14.00,2013-01-09 17:06:00,
2013-01-09 12:11:00,55.0,53.3,30.06,North,5,5.4,6.3,94,0.00,,OVC,0.87,VWS V14.00,2013-01-09 17:11:00,
2013-01-09 12:16:00,54.9,53.2,30.06,NNE,15,3.1,4.0,94,0.00,,OVC,0.87,VWS V14.00,2013-01-09 17:16:00,
2013-01-09 12:21:00,54.7,53.0,30.06,North,357,3.1,3.1,94,0.00,,OVC,0.87,VWS V14.00,2013-01-09 17:21:00,
2013-01-09 12:26:00,54.7,53.0,30.06,WNW,285,3.1,3.1,94,0.00,,OVC,0.87,VWS V14.00,2013-01-09 17:26:00,
2013-01-09 12:32:00,54.7,53.0,30.06,West,277,3.1,3.6,94,0.00,,OVC,0.87,VWS V14.00,2013-01-09 17:32:00,
2013-01-09 12:37:00,54.9,53.2,30.09,WNW,289,3.1,4.0,94,0.04,,OVC,0.91,VWS V14.00,2013-01-09 17:37:00,
2013-01-09 12:42:00,54.9,53.2,30.09,NW,309,2.7,2.7,94,0.08,,OVC,0.94,VWS V14.00,2013-01-09 17:42:00,
2013-01-09 12:47:00,55.0,53.3,30.09,NW,321,7.6,7.6,94,0.08,,OVC,0.94,VWS V14.00,2013-01-09 17:47:00,
2013-01-09 12:52:00,55.0,53.3,30.06,NW,307,5.4,5.8,94,0.08,,OVC,0.94,VWS V14.00,2013-01-09 17:52:00,
2013-01-09 12:57:00,54.7,53.0,30.06,North,10,5.4,5.4,94,0.12,,OVC,0.98,VWS V14.00,2013-01-09 17:57:00,
2013-01-09 13:02:00,54.7,53.0,30.06,WNW,299,6.7,6.7,94,0.12,,OVC,0.98,VWS V14.00,2013-01-09 18:02:00,
2013-01-09 13:07:00,54.9,53.2,30.06,NW,312,3.1,5.4,94,0.12,,OVC,0.98,VWS V14.00,2013-01-09 18:07:00,
2013-01-09 13:12:00,54.9,53.2,30.06,NW,318,5.4,7.6,94,0.12,,OVC,0.98,VWS V14.00,2013-01-09 18:12:00,
2013-01-09 13:17:00,54.7,53.0,30.06,NNW,341,5.8,5.8,94,0.12,,OVC,0.98,VWS V14.00,2013-01-09 18:17:00,
2013-01-09 13:22:00,54.7,53.0,30.03,North,0,4.0,5.4,94,0.12,,OVC,0.98,VWS V14.00,2013-01-09 18:22:00,
2013-01-09 13:27:00,54.7,53.0,30.03,NNW,335,7.6,7.6,94,0.12,,OVC,0.98,VWS V14.00,2013-01-09 18:27:00,
2013-01-09 13:32:00,54.5,52.8,30.03,North,357,3.6,4.0,94,0.12,,OVC,0.98,VWS V14.00,2013-01-09 18:32:00,
2013-01-09 13:37:00,54.5,52.8,30.03,North,9,5.4,5.8,94,0.08,,OVC,0.98,VWS V14.00,2013-01-09 18:37:00,
2013-01-09 13:41:00,54.3,52.6,30.03,North,7,5.8,5.8,94,0.08,,OVC,0.98,VWS V14.00,2013-01-09 18:41:00,
2013-01-09 13:42:00,54.3,52.6,30.03,NNE,20,6.3,8.1,94,0.08,,OVC,0.98,VWS V14.00,2013-01-09 18:42:00,
2013-01-09 13:44:00,54.3,52.6,30.03,North,4,6.3,6.3,94,0.04,,OVC,0.98,VWS V14.00,2013-01-09 18:44:00,
2013-01-09 13:45:00,54.3,52.6,30.03,NNW,340,3.6,6.3,94,0.04,,OVC,0.98,VWS V14.00,2013-01-09 18:45:00,
2013-01-09 13:46:00,54.3,52.6,30.03,North,0,5.4,5.8,94,0.04,,OVC,0.98,VWS V14.00,2013-01-09 18:46:00,
2013-01-09 13:48:00,54.3,52.6,30.00,North,9,7.2,8.3,94,0.04,,OVC,0.98,VWS V14.00,2013-01-09 18:48:00,
2013-01-09 13:50:00,54.3,52.6,30.00,North,2,6.7,8.3,94,0.04,,OVC,0.98,VWS V14.00,2013-01-09 18:50:00,
2013-01-09 13:52:00,54.3,52.6,30.00,North,350,3.1,6.3,94,0.04,,OVC,0.98,VWS V14.00,2013-01-09 18:52:00,
2013-01-09 13:55:00,54.3,52.6,30.00,North,0,7.6,9.2,94,0.04,,OVC,0.98,VWS V14.00,2013-01-09 18:55:00,
2013-01-09 14:00:00,54.1,52.5,30.00,NNE,32,6.3,10.1,94,0.00,,OVC,0.98,VWS V14.00,2013-01-09 19:00:00,
2013-01-09 14:05:00,54.1,52.5,29.94,NNE,25,12.8,15.0,94,0.00,,OVC,0.98,VWS V14.00,2013-01-09 19:05:00,
2013-01-09 14:10:00,54.1,52.5,29.94,North,357,8.1,10.1,94,0.00,,OVC,0.98,VWS V14.00,2013-01-09 19:10:00,
2013-01-09 14:15:00,54.1,52.5,29.94,NNE,32,13.2,13.2,94,0.00,,OVC,0.98,VWS V14.00,2013-01-09 19:15:00,
2013-01-09 14:20:00,54.1,52.5,29.94,NNE,33,8.3,8.3,94,0.00,,OVC,0.98,VWS V14.00,2013-01-09 19:20:00,
2013-01-09 14:25:00,54.1,52.5,29.94,North,353,4.0,7.6,94,0.00,,OVC,0.98,VWS V14.00,2013-01-09 19:25:00,
2013-01-09 14:30:00,54.1,52.5,29.94,NNW,334,5.8,5.8,94,0.00,,OVC,0.98,VWS V14.00,2013-01-09 19:30:00,
2013-01-09 14:35:00,54.1,52.5,29.91,NNW,335,4.0,5.8,94,0.00,,OVC,0.98,VWS V14.00,2013-01-09 19:35:00,
2013-01-09 14:40:00,54.1,52.5,29.91,NNE,13,8.1,8.1,94,0.00,,OVC,0.98,VWS V14.00,2013-01-09 19:40:00,
2013-01-09 14:45:00,54.3,52.6,29.91,NNE,22,5.4,8.1,94,0.00,,OVC,0.98,VWS V14.00,2013-01-09 19:45:00,
2013-01-09 14:50:00,54.3,52.6,29.91,NNE,28,6.3,6.3,94,0.00,,OVC,0.98,VWS V14.00,2013-01-09 19:50:00,
2013-01-09 14:55:00,54.5,52.8,29.91,NE,52,3.6,6.3,94,0.00,,OVC,0.98,VWS V14.00,2013-01-09 19:55:00,
2013-01-09 15:00:00,54.5,52.8,29.91,NNE,31,6.7,8.1,94,0.00,,OVC,0.98,VWS V14.00,2013-01-09 20:00:00,
2013-01-09 15:05:00,54.7,53.0,29.91,North,10,6.3,6.3,94,0.00,,OVC,0.98,VWS V14.00,2013-01-09 20:05:00,
2013-01-09 15:10:00,54.9,53.2,29.91,NNE,21,5.4,5.4,94,0.00,,OVC,0.98,VWS V14.00,2013-01-09 20:10:00,
2013-01-09 15:15:00,55.0,53.3,29.91,NNE,20,3.1,3.1,94,0.00,,OVC,0.98,VWS V14.00,2013-01-09 20:15:00,
2013-01-09 15:20:00,55.2,53.5,29.91,NNE,20,3.6,3.6,94,0.00,,OVC,0.98,VWS V14.00,2013-01-09 20:20:00,
2013-01-09 15:25:00,55.4,53.7,29.91,NW,315,2.7,2.7,94,0.00,,OVC,0.98,VWS V14.00,2013-01-09 20:25:00,
2013-01-09 15:30:00,55.6,53.9,29.91,North,8,2.7,5.4,94,0.00,,OVC,0.98,VWS V14.00,2013-01-09 20:30:00,
2013-01-09 15:35:00,55.8,54.1,29.91,NE,40,3.6,4.9,94,0.00,,OVC,0.98,VWS V14.00,2013-01-09 20:35:00,
2013-01-09 15:40:00,56.1,54.4,29.91,NNE,21,3.6,4.9,94,0.00,,OVC,0.98,VWS V14.00,2013-01-09 20:40:00,
2013-01-09 15:45:00,56.3,54.6,29.91,NNE,28,2.7,2.7,94,0.00,,OVC,0.98,VWS V14.00,2013-01-09 20:45:00,
2013-01-09 15:50:00,56.7,55.0,29.94,North,353,0.0,0.0,94,0.00,,OVC,0.98,VWS V14.00,2013-01-09 20:50:00,
2013-01-09 15:55:00,56.8,55.1,29.94,NNE,17,5.8,5.8,94,0.00,,OVC,0.98,VWS V14.00,2013-01-09 20:55:00,
2013-01-09 16:00:00,57.0,55.3,29.94,NNE,31,2.2,2.7,94,0.00,,OVC,0.98,VWS V14.00,2013-01-09 21:00:00,
2013-01-09 16:05:00,57.6,55.8,29.94,North,0,4.0,5.4,94,0.00,,OVC,0.98,VWS V14.00,2013-01-09 21:05:00,
2013-01-09 16:10:00,57.7,56.0,29.94,NNW,334,0.0,0.0,94,0.00,,OVC,0.98,VWS V14.00,2013-01-09 21:10:00,
2013-01-09 16:15:00,58.1,56.4,29.94,WNW,289,3.1,4.9,94,0.00,,OVC,0.98,VWS V14.00,2013-01-09 21:15:00,
2013-01-09 16:20:00,58.1,56.4,29.97,WNW,299,3.6,4.0,94,0.00,,OVC,0.98,VWS V14.00,2013-01-09 21:20:00,
2013-01-09 16:25:00,57.9,56.2,29.97,SW,232,4.9,4.9,94,0.00,,OVC,0.98,VWS V14.00,2013-01-09 21:25:00,
2013-01-09 16:30:00,57.9,56.2,29.97,West,261,4.0,5.4,94,0.00,,OVC,0.98,VWS V14.00,2013-01-09 21:30:00,
2013-01-09 16:35:00,57.9,56.2,29.97,West,260,3.6,3.6,94,0.00,,OVC,0.98,VWS V14.00,2013-01-09 21:35:00,
2013-01-09 16:40:00,57.9,56.2,29.97,West,260,0.0,0.0,94,0.00,,OVC,0.98,VWS V14.00,2013-01-09 21:40:00,
2013-01-09 16:45:00,57.9,56.2,29.97,NW,320,0.0,0.0,94,0.00,,OVC,0.98,VWS V14.00,2013-01-09 21:45:00,
2013-01-09 16:50:00,57.9,56.2,29.97,NW,321,0.0,0.0,94,0.00,,OVC,0.98,VWS V14.00,2013-01-09 21:50:00,
2013-01-09 16:55:00,57.7,56.0,29.97,NW,321,0.0,0.0,94,0.00,,OVC,0.98,VWS V14.00,2013-01-09 21:55:00,
2013-01-09 17:00:00,57.6,55.8,29.97,NW,321,0.0,2.2,94,0.00,,OVC,0.98,VWS V14.00,2013-01-09 22:00:00,
2013-01-09 17:05:00,57.6,55.8,29.97,NW,321,2.7,2.7,94,0.00,,OVC,0.98,VWS V14.00,2013-01-09 22:05:00,
2013-01-09 17:10:00,57.6,55.8,29.97,NW,321,2.2,2.2,94,0.00,,OVC,0.98,VWS V14.00,2013-01-09 22:10:00,
2013-01-09 17:15:00,57.6,55.8,29.97,WSW,246,4.0,4.0,94,0.00,,OVC,0.98,VWS V14.00,2013-01-09 22:15:00,
2013-01-09 17:20:00,57.6,55.6,30.00,West,261,4.0,5.4,93,0.00,,OVC,0.98,VWS V14.00,2013-01-09 22:20:00,
2013-01-09 17:25:00,57.6,55.6,30.00,WSW,252,5.8,5.8,93,0.00,,OVC,0.98,VWS V14.00,2013-01-09 22:25:00,
2013-01-09 17:30:00,57.6,55.6,30.00,WSW,243,5.8,6.3,93,0.00,,OVC,0.98,VWS V14.00,2013-01-09 22:30:00,
2013-01-09 17:35:00,57.4,55.4,30.00,WSW,258,8.1,8.1,93,0.00,,OVC,0.98,VWS V14.00,2013-01-09 22:35:00,
2013-01-09 17:40:00,57.4,55.4,30.00,West,277,4.0,5.8,93,0.00,,OVC,0.98,VWS V14.00,2013-01-09 22:40:00,
2013-01-09 17:45:00,57.4,55.4,30.00,WSW,248,4.5,6.3,93,0.00,,OVC,0.98,VWS V14.00,2013-01-09 22:45:00,
2013-01-09 17:50:00,57.4,55.4,30.00,WSW,252,5.4,5.4,93,0.00,,OVC,0.98,VWS V14.00,2013-01-09 22:50:00,
2013-01-09 17:55:00,57.4,55.4,30.00,West,274,5.8,6.3,93,0.00,,OVC,0.98,VWS V14.00,2013-01-09 22:55:00,
2013-01-09 18:00:00,57.4,55.4,30.00,WSW,250,4.9,5.8,93,0.00,,OVC,0.98,VWS V14.00,2013-01-09 23:00:00,
2013-01-09 18:05:00,57.4,55.4,30.00,West,259,5.4,7.2,93,0.00,,OVC,0.98,VWS V14.00,2013-01-09 23:05:00,
2013-01-09 18:10:00,57.4,55.4,30.00,WNW,293,5.4,5.8,93,0.00,,OVC,0.98,VWS V14.00,2013-01-09 23:10:00,
2013-01-09 18:15:00,57.2,55.2,30.00,West,271,4.0,4.9,93,0.00,,OVC,0.98,VWS V14.00,2013-01-09 23:15:00,
2013-01-09 18:20:00,57.2,55.2,30.00,WNW,293,6.3,7.6,93,0.00,,OVC,0.98,VWS V14.00,2013-01-09 23:20:00,
2013-01-09 18:25:00,57.2,55.2,30.00,NW,310,3.6,4.9,93,0.00,,OVC,0.98,VWS V14.00,2013-01-09 23:25:00,
2013-01-09 18:30:00,57.0,55.3,30.00,West,279,4.5,4.5,94,0.00,,OVC,0.98,VWS V14.00,2013-01-09 23:30:00,
2013-01-09 18:35:00,56.8,55.1,30.00,West,276,3.6,4.0,94,0.00,,OVC,0.98,VWS V14.00,2013-01-09 23:35:00,
2013-01-09 18:40:00,56.7,55.0,30.00,WSW,250,2.7,2.7,94,0.00,,OVC,0.98,VWS V14.00,2013-01-09 23:40:00,
2013-01-09 18:45:00,56.7,55.0,30.00,WSW,257,0.0,2.7,94,0.00,,OVC,0.98,VWS V14.00,2013-01-09 23:45:00,
2013-01-09 18:50:00,56.7,55.0,30.00,WSW,257,0.0,0.0,94,0.00,,OVC,0.98,VWS V14.00,2013-01-09 23:50:00,
2013-01-09 18:55:00,56.5,54.8,30.00,WSW,257,0.0,0.0,94,0.00,,OVC,0.98,VWS V14.00,2013-01-09 23:55:00,
2013-01-09 19:00:00,56.5,54.8,30.00,WSW,257,0.0,0.0,94,0.00,,OVC,0.98,VWS V14.00,2013-01-10 00:00:00,
2013-01-09 19:05:00,56.5,54.5,30.03,WSW,257,0.0,0.0,93,0.00,,OVC,0.98,VWS V14.00,2013-01-10 00:05:00,
2013-01-09 19:10:00,56.3,54.3,30.03,WSW,257,0.0,0.0,93,0.00,,OVC,0.98,VWS V14.00,2013-01-10 00:10:00,
2013-01-09 19:15:00,56.3,54.3,30.03,WSW,257,0.0,0.0,93,0.00,,OVC,0.98,VWS V14.00,2013-01-10 00:15:00,
2013-01-09 19:20:00,56.3,54.3,30.03,WSW,257,0.0,0.0,93,0.00,,OVC,0.98,VWS V14.00,2013-01-10 00:20:00,
2013-01-09 20:14:00,55.6,53.6,30.03,NE,56,0.0,0.0,93,0.00,,OVC,0.98,VWS V14.00,2013-01-10 01:14:00,
2013-01-09 20:19:00,55.4,53.4,30.03,NE,56,0.0,0.0,93,0.00,,OVC,0.98,VWS V14.00,2013-01-10 01:19:00,
2013-01-09 20:24:00,55.0,53.1,30.03,NE,56,0.0,0.0,93,0.00,,OVC,0.98,VWS V14.00,2013-01-10 01:24:00,
2013-01-09 20:30:00,54.9,52.9,30.03,SW,215,4.0,4.0,93,0.00,,OVC,0.98,VWS V14.00,2013-01-10 01:30:00,
2013-01-09 20:36:00,54.5,52.5,30.03,SW,215,0.0,0.0,93,0.00,,OVC,0.98,VWS V14.00,2013-01-10 01:36:00,
2013-01-09 20:41:00,54.3,52.3,30.03,SW,215,0.0,0.0,93,0.00,,OVC,0.98,VWS V14.00,2013-01-10 01:41:00,
2013-01-09 20:47:00,54.0,52.0,30.03,SW,215,0.0,0.0,93,0.00,,OVC,0.98,VWS V14.00,2013-01-10 01:47:00,
2013-01-09 20:53:00,53.8,51.8,30.03,SW,215,0.0,0.0,93,0.00,,OVC,0.98,VWS V14.00,2013-01-10 01:53:00,
2013-01-09 20:58:00,53.8,51.8,30.03,SW,215,0.0,0.0,93,0.00,,OVC,0.98,VWS V14.00,2013-01-10 01:58:00,
2013-01-09 21:04:00,53.4,51.5,30.03,SW,215,3.1,3.6,93,0.00,,OVC,0.98,VWS V14.00,2013-01-10 02:04:00,
2013-01-09 21:09:00,53.4,51.5,30.03,SW,215,4.0,4.5,93,0.00,,OVC,0.98,VWS V14.00,2013-01-10 02:09:00,
2013-01-09 21:14:00,53.4,51.5,30.03,SW,215,4.9,4.9,93,0.00,,OVC,0.98,VWS V14.00,2013-01-10 02:14:00,
2013-01-09 21:20:00,53.2,51.3,30.03,West,268,3.6,3.6,93,0.00,,OVC,0.98,VWS V14.00,2013-01-10 02:20:00,
2013-01-09 21:26:00,53.1,51.1,30.03,West,264,5.4,5.4,93,0.00,,OVC,0.98,VWS V14.00,2013-01-10 02:26:00,
2013-01-09 21:32:00,52.9,50.9,30.03,WSW,253,4.0,4.9,93,0.00,,OVC,0.98,VWS V14.00,2013-01-10 02:32:00,
2013-01-09 21:37:00,52.9,50.9,30.03,WSW,242,3.6,3.6,93,0.00,,OVC,0.98,VWS V14.00,2013-01-10 02:37:00,
2013-01-09 21:43:00,52.9,50.9,30.03,WSW,255,3.6,4.0,93,0.00,,OVC,0.98,VWS V14.00,2013-01-10 02:43:00,
2013-01-09 21:49:00,52.7,50.7,30.03,WSW,257,0.0,0.0,93,0.00,,OVC,0.98,VWS V14.00,2013-01-10 02:49:00,
2013-01-09 21:54:00,52.5,50.6,30.03,WSW,257,0.0,0.0,93,0.00,,OVC,0.98,VWS V14.00,2013-01-10 02:54:00,
2013-01-09 21:59:00,52.2,50.2,30.03,WSW,257,0.0,0.0,93,0.00,,OVC,0.98,VWS V14.00,2013-01-10 02:59:00,
2013-01-09 22:04:00,52.0,50.0,30.03,WSW,257,0.0,0.0,93,0.00,,OVC,0.98,VWS V14.00,2013-01-10 03:04:00,
2013-01-09 22:09:00,51.8,49.8,30.03,WSW,257,0.0,0.0,93,0.00,,OVC,0.98,VWS V14.00,2013-01-10 03:09:00,
2013-01-09 22:14:00,51.6,49.7,30.03,WSW,257,2.2,2.2,93,0.00,,OVC,0.98,VWS V14.00,2013-01-10 03:14:00,
2013-01-09 22:19:00,51.4,49.5,30.03,WSW,257,2.2,3.1,93,0.00,,OVC,0.98,VWS V14.00,2013-01-10 03:19:00,
2013-01-09 22:24:00,51.3,49.3,30.03,WSW,257,0.0,0.0,93,0.00,,OVC,0.98,VWS V14.00,2013-01-10 03:24:00,
2013-01-09 22:29:00,51.1,49.1,30.03,WSW,257,3.1,3.1,93,0.00,,OVC,0.98,VWS V14.00,2013-01-10 03:29:00,
2013-01-09 22:34:00,51.3,49.3,30.03,WSW,257,2.7,2.7,93,0.00,,OVC,0.98,VWS V14.00,2013-01-10 03:34:00,
2013-01-09 22:39:00,51.4,49.5,30.03,WSW,257,3.1,3.6,93,0.00,,OVC,0.98,VWS V14.00,2013-01-10 03:39:00,
2013-01-09 22:44:00,51.6,50.0,30.03,WSW,257,2.7,2.7,94,0.00,,OVC,0.98,VWS V14.00,2013-01-10 03:44:00,
2013-01-09 22:49:00,52.0,50.0,30.06,WSW,257,2.7,2.7,93,0.00,,OVC,0.98,VWS V14.00,2013-01-10 03:49:00,
2013-01-09 22:54:00,52.3,50.7,30.06,WSW,257,0.0,0.0,94,0.00,,OVC,0.98,VWS V14.00,2013-01-10 03:54:00,
2013-01-09 22:59:00,52.7,51.0,30.06,WSW,257,3.1,3.1,94,0.00,,OVC,0.98,VWS V14.00,2013-01-10 03:59:00,
2013-01-09 23:04:00,52.9,51.2,30.06,SW,230,2.7,4.0,94,0.00,,OVC,0.98,VWS V14.00,2013-01-10 04:04:00,
2013-01-09 23:09:00,53.1,51.4,30.06,SW,230,2.7,3.1,94,0.00,,OVC,0.98,VWS V14.00,2013-01-10 04:09:00,
2013-01-09 23:14:00,53.2,51.6,30.06,SW,230,2.7,2.7,94,0.00,,OVC,0.98,VWS V14.00,2013-01-10 04:14:00,
2013-01-09 23:19:00,53.4,51.7,30.06,SW,230,3.1,3.6,94,0.00,,OVC,0.98,VWS V14.00,2013-01-10 04:19:00,
2013-01-09 23:24:00,53.4,51.7,30.06,SW,230,2.7,3.6,94,0.00,,OVC,0.98,VWS V14.00,2013-01-10 04:24:00,
2013-01-09 23:29:00,53.4,51.7,30.06,SW,230,0.0,0.0,94,0.00,,OVC,0.98,VWS V14.00,2013-01-10 04:29:00,
2013-01-09 23:34:00,53.4,51.7,30.06,SW,230,2.7,2.7,94,0.00,,OVC,0.98,VWS V14.00,2013-01-10 04:34:00,
2013-01-09 23:39:00,53.4,51.7,30.06,WSW,249,2.2,2.2,94,0.00,,OVC,0.98,VWS V14.00,2013-01-10 04:39:00,
2013-01-09 23:44:00,53.2,51.6,30.06,West,273,2.2,2.7,94,0.00,,OVC,0.98,VWS V14.00,2013-01-10 04:44:00,
2013-01-09 23:49:00,53.2,51.6,30.06,West,273,0.0,0.0,94,0.00,,OVC,0.98,VWS V14.00,2013-01-10 04:49:00,
2013-01-09 23:54:00,53.1,51.4,30.06,West,273,0.0,0.0,94,0.00,,OVC,0.98,VWS V14.00,2013-01-10 04:54:00,
2013-01-09 23:59:00,53.1,51.4,30.06,West,273,0.0,0.0,94,0.00,,OVC,0.98,VWS V14.00,2013-01-10 04:59:00,